createdAt,value
2022-10-09T00:01:21.427Z,11.12
2022-10-09T00:03:51.707Z,11.08
2022-10-09T00:06:25.608Z,11.06
2022-10-09T00:08:53.287Z,11.06
2022-10-09T00:11:25.141Z,11.03
2022-10-09T00:13:54.106Z,11.00
2022-10-09T00:16:22.747Z,11.01
2022-10-09T00:18:50.947Z,10.98
2022-10-09T00:21:32.007Z,10.93
2022-10-09T00:24:02.372Z,10.93
2022-10-09T00:26:29.827Z,10.90
2022-10-09T00:28:57.412Z,10.89
2022-10-09T00:31:24.670Z,10.84
2022-10-09T00:33:51.627Z,10.87
2022-10-09T00:36:22.316Z,10.84
2022-10-09T00:38:50.261Z,10.79
2022-10-09T00:41:25.310Z,10.81
2022-10-09T00:44:00.061Z,10.80
2022-10-09T00:46:44.941Z,10.78
2022-10-09T00:49:32.631Z,10.75
2022-10-09T00:52:06.326Z,10.72
2022-10-09T00:54:37.480Z,10.70
2022-10-09T00:57:04.532Z,10.70
2022-10-09T00:59:32.463Z,10.68
2022-10-09T01:01:59.839Z,10.73
2022-10-09T01:04:27.000Z,10.68
2022-10-09T01:07:15.430Z,10.64
2022-10-09T01:10:08.351Z,10.63
2022-10-09T01:13:11.645Z,10.58
2022-10-09T01:16:18.324Z,10.55
2022-10-09T01:19:16.300Z,10.48
2022-10-09T01:22:02.184Z,10.49
2022-10-09T01:25:01.917Z,10.41
2022-10-09T01:27:30.837Z,10.41
2022-10-09T01:30:08.663Z,10.44
2022-10-09T01:32:43.957Z,10.42
2022-10-09T01:35:14.222Z,10.40
2022-10-09T01:37:45.642Z,10.34
2022-10-09T01:40:16.882Z,10.35
2022-10-09T01:42:47.306Z,10.34
2022-10-09T01:45:15.993Z,10.30
2022-10-09T01:47:43.407Z,10.28
2022-10-09T01:50:13.209Z,10.25
2022-10-09T01:53:02.173Z,10.21
2022-10-09T01:55:51.383Z,10.20
2022-10-09T01:58:41.924Z,10.16
2022-10-09T02:01:25.338Z,10.12
2022-10-09T02:03:54.526Z,10.10
2022-10-09T02:06:22.481Z,10.16
2022-10-09T02:08:52.283Z,10.11
2022-10-09T02:11:19.424Z,10.09
2022-10-09T02:13:49.716Z,10.07
2022-10-09T02:16:39.206Z,10.03
2022-10-09T02:19:22.774Z,10.02
2022-10-09T02:22:06.746Z,9.99
2022-10-09T02:24:34.577Z,9.96
2022-10-09T02:27:02.879Z,9.94
2022-10-09T02:29:29.992Z,9.89
2022-10-09T02:31:56.938Z,9.90
2022-10-09T02:34:24.001Z,9.87
2022-10-09T02:36:51.405Z,9.93
2022-10-09T02:39:18.821Z,9.89
2022-10-09T02:41:45.797Z,9.88
2022-10-09T02:44:12.746Z,9.84
2022-10-09T02:46:39.810Z,9.83
2022-10-09T02:49:07.360Z,9.82
2022-10-09T02:51:34.889Z,9.75
2022-10-09T02:54:02.172Z,9.75
2022-10-09T02:56:29.597Z,9.76
2022-10-09T02:58:56.582Z,9.72
2022-10-09T03:01:23.983Z,9.69
2022-10-09T03:03:51.084Z,9.66
2022-10-09T03:06:22.248Z,9.70
2022-10-09T03:08:51.815Z,9.68
2022-10-09T03:11:21.374Z,9.71
2022-10-09T03:13:48.930Z,9.64
2022-10-09T03:16:20.766Z,9.63
2022-10-09T03:18:49.215Z,9.60
2022-10-09T03:21:23.022Z,9.58
2022-10-09T03:23:51.028Z,9.54
2022-10-09T03:26:22.384Z,9.54
2022-10-09T03:28:51.657Z,9.50
2022-10-09T03:31:47.015Z,9.47
2022-10-09T03:34:10.865Z,9.49
2022-10-09T03:36:38.008Z,9.48
2022-10-09T03:39:05.090Z,9.43
2022-10-09T03:41:32.119Z,9.44
2022-10-09T03:43:59.251Z,9.44
2022-10-09T03:46:26.227Z,9.45
2022-10-09T03:48:53.224Z,9.36
2022-10-09T03:51:20.214Z,9.38
2022-10-09T03:53:47.272Z,9.39
2022-10-09T03:56:14.242Z,9.38
2022-10-09T03:58:41.360Z,9.38
2022-10-09T04:01:08.522Z,9.39
2022-10-09T04:03:35.596Z,9.32
2022-10-09T04:06:02.572Z,9.31
2022-10-09T04:08:29.529Z,9.36
2022-10-09T04:11:01.235Z,9.34
2022-10-09T04:13:28.484Z,9.29
2022-10-09T04:15:56.475Z,9.25
2022-10-09T04:18:24.124Z,9.27
2022-10-09T04:20:53.499Z,9.22
2022-10-09T04:23:23.593Z,9.17
2022-10-09T04:25:59.522Z,9.19
2022-10-09T04:28:28.386Z,9.18
2022-10-09T04:30:57.355Z,9.21
2022-10-09T04:33:26.463Z,9.17
2022-10-09T04:35:55.089Z,9.15
2022-10-09T04:38:23.449Z,9.11
2022-10-09T04:41:05.806Z,9.10
2022-10-09T04:43:34.937Z,9.13
2022-10-09T04:46:12.501Z,9.10
2022-10-09T04:48:42.436Z,9.06
2022-10-09T04:51:10.234Z,9.03
2022-10-09T04:53:38.442Z,8.98
2022-10-09T04:56:12.423Z,9.02
2022-10-09T04:58:40.813Z,9.04
2022-10-09T05:01:17.702Z,9.02
2022-10-09T05:03:44.891Z,8.99
2022-10-09T05:06:14.166Z,8.98
2022-10-09T05:08:42.437Z,8.96
2022-10-09T05:11:14.743Z,8.93
2022-10-09T05:13:46.203Z,8.92
2022-10-09T05:16:17.607Z,8.88
2022-10-09T05:18:53.664Z,8.88
2022-10-09T05:21:21.435Z,8.87
2022-10-09T05:23:49.516Z,8.89
2022-10-09T05:26:19.975Z,8.83
2022-10-09T05:28:48.022Z,8.82
2022-10-09T05:31:26.144Z,8.86
2022-10-09T05:33:54.683Z,8.84
2022-10-09T05:36:22.094Z,8.83
2022-10-09T05:38:49.432Z,8.84
2022-10-09T05:41:19.090Z,8.86
2022-10-09T05:43:48.526Z,8.83
2022-10-09T05:46:21.086Z,8.86
2022-10-09T05:49:05.318Z,8.86
2022-10-09T05:51:44.348Z,8.83
2022-10-09T05:54:16.872Z,8.83
2022-10-09T05:56:45.225Z,8.81
2022-10-09T05:59:19.945Z,8.79
2022-10-09T06:01:50.750Z,8.82
2022-10-09T06:04:23.240Z,8.79
2022-10-09T06:06:51.364Z,8.76
2022-10-09T06:09:23.082Z,8.75
2022-10-09T06:11:51.538Z,8.73
2022-10-09T06:14:21.984Z,8.73
2022-10-09T06:16:49.785Z,8.72
2022-10-09T06:19:19.441Z,8.74
2022-10-09T06:21:47.647Z,8.75
2022-10-09T06:24:29.057Z,8.78
2022-10-09T06:26:57.907Z,8.74
2022-10-09T06:29:25.117Z,8.76
2022-10-09T06:31:52.171Z,8.74
2022-10-09T06:34:19.533Z,8.77
2022-10-09T06:36:46.479Z,8.81
2022-10-09T06:39:13.458Z,8.81
2022-10-09T06:41:40.987Z,8.84
2022-10-09T06:44:16.068Z,8.83
2022-10-09T06:46:45.683Z,8.86
2022-10-09T06:49:13.092Z,8.88
2022-10-09T06:51:40.222Z,8.93
2022-10-09T06:54:14.426Z,8.97
2022-10-09T06:56:41.725Z,9.04
2022-10-09T06:59:11.172Z,9.11
2022-10-09T07:01:38.272Z,9.14
2022-10-09T07:04:11.116Z,9.18
2022-10-09T07:06:42.236Z,9.23
2022-10-09T07:09:12.840Z,9.32
2022-10-09T07:11:45.956Z,9.39
2022-10-09T07:14:15.943Z,9.47
2022-10-09T07:16:47.499Z,9.54
2022-10-09T07:19:17.505Z,9.61
2022-10-09T07:21:49.119Z,9.70
2022-10-09T07:24:17.665Z,9.76
2022-10-09T07:26:46.475Z,9.82
2022-10-09T07:29:16.795Z,9.93
2022-10-09T07:31:44.130Z,9.97
2022-10-09T07:34:11.235Z,10.09
2022-10-09T07:36:38.229Z,10.18
2022-10-09T07:39:05.867Z,10.28
2022-10-09T07:41:33.127Z,10.40
2022-10-09T07:44:00.124Z,10.43
2022-10-09T07:46:33.268Z,10.52
2022-10-09T07:49:01.412Z,10.61
2022-10-09T07:51:30.139Z,10.72
2022-10-09T07:53:58.271Z,10.82
2022-10-09T07:56:29.452Z,10.90
2022-10-09T07:59:03.751Z,11.02
2022-10-09T08:01:33.570Z,11.10
2022-10-09T08:04:02.738Z,11.21
2022-10-09T08:06:30.297Z,11.34
2022-10-09T08:09:00.217Z,11.45
2022-10-09T08:11:29.832Z,11.49
2022-10-09T08:13:57.432Z,11.61
2022-10-09T08:16:26.177Z,11.70
2022-10-09T08:19:01.190Z,11.80
2022-10-09T08:21:28.754Z,11.92
2022-10-09T08:23:58.808Z,12.04
2022-10-09T08:26:28.894Z,12.12
2022-10-09T08:29:00.039Z,12.25
2022-10-09T08:31:28.409Z,12.31
2022-10-09T08:33:57.987Z,12.42
2022-10-09T08:36:26.491Z,12.53
2022-10-09T08:38:54.449Z,12.64
2022-10-09T08:41:42.202Z,12.71
2022-10-09T08:44:46.797Z,12.80
2022-10-09T08:47:21.075Z,12.94
2022-10-09T08:50:11.056Z,13.05
2022-10-09T08:52:53.471Z,13.17
2022-10-09T08:55:45.795Z,13.25
2022-10-09T08:58:21.418Z,13.36
2022-10-09T09:01:33.014Z,13.48
2022-10-09T09:04:54.462Z,13.64
2022-10-09T09:08:05.581Z,13.73
2022-10-09T09:11:07.211Z,13.88
2022-10-09T09:13:52.794Z,13.96
2022-10-09T09:16:45.706Z,14.05
2022-10-09T09:19:40.726Z,14.23
2022-10-09T09:22:14.384Z,14.34
2022-10-09T09:24:55.213Z,14.45
2022-10-09T09:27:33.848Z,14.62
2022-10-09T09:30:32.859Z,14.68
2022-10-09T09:33:45.008Z,14.76
2022-10-09T09:36:31.288Z,14.90
2022-10-09T09:41:45.965Z,15.13
2022-10-09T09:44:15.074Z,15.31
2022-10-09T09:46:43.823Z,15.33
2022-10-09T09:49:27.203Z,15.41
2022-10-09T09:51:58.452Z,15.47
2022-10-09T09:54:30.511Z,15.62
2022-10-09T09:57:12.815Z,15.69
2022-10-09T09:59:45.915Z,15.80
2022-10-09T10:02:26.213Z,15.93
2022-10-09T10:04:59.599Z,16.01
2022-10-09T10:07:36.225Z,16.09
2022-10-09T10:10:25.867Z,16.18
2022-10-09T10:12:53.402Z,16.34
2022-10-09T10:15:33.366Z,16.31
2022-10-09T10:18:07.628Z,16.42
2022-10-09T10:20:51.339Z,16.60
2022-10-09T10:23:40.752Z,16.62
2022-10-09T10:26:35.382Z,16.73
2022-10-09T10:29:17.419Z,16.80
2022-10-09T10:31:54.428Z,16.92
2022-10-09T10:34:31.950Z,17.10
2022-10-09T10:37:47.785Z,17.15
2022-10-09T10:40:53.965Z,17.30
2022-10-09T10:43:43.653Z,17.34
2022-10-09T10:46:49.026Z,17.44
2022-10-09T10:49:23.195Z,17.49
2022-10-09T10:52:35.272Z,17.63
2022-10-09T10:55:45.620Z,17.61
2022-10-09T10:58:31.441Z,17.77
2022-10-09T11:01:16.456Z,17.95
2022-10-09T11:04:34.651Z,17.96
2022-10-09T11:07:10.248Z,17.95
2022-10-09T11:10:03.453Z,18.24
2022-10-09T11:12:54.046Z,18.16
2022-10-09T11:15:34.294Z,18.28
2022-10-09T11:18:06.670Z,18.47
2022-10-09T11:20:57.913Z,18.41
2022-10-09T11:24:12.495Z,18.38
2022-10-09T11:27:09.624Z,18.61
2022-10-09T11:30:00.435Z,18.73
2022-10-09T11:32:59.374Z,18.78
2022-10-09T11:35:42.047Z,18.75
2022-10-09T11:38:37.245Z,18.90
2022-10-09T11:41:07.439Z,18.88
2022-10-09T11:44:24.547Z,19.06
2022-10-09T11:47:20.471Z,19.15
2022-10-09T11:50:02.412Z,19.18
2022-10-09T11:52:58.559Z,19.24
2022-10-09T11:55:29.871Z,19.45
2022-10-09T11:58:09.344Z,19.35
2022-10-09T12:00:38.507Z,19.54
2022-10-09T12:03:07.613Z,19.52
2022-10-09T12:05:46.190Z,19.58
2022-10-09T12:08:25.700Z,19.56
2022-10-09T12:10:59.592Z,19.68
2022-10-09T12:13:41.766Z,19.78
2022-10-09T12:16:32.429Z,19.91
2022-10-09T12:19:03.829Z,19.83
2022-10-09T12:21:48.637Z,19.88
2022-10-09T12:24:27.895Z,19.86
2022-10-09T12:26:59.704Z,20.03
2022-10-09T12:29:43.302Z,20.09
2022-10-09T12:32:37.448Z,20.13
2022-10-09T12:35:39.213Z,20.15
2022-10-09T12:38:26.090Z,20.15
2022-10-09T12:40:55.661Z,20.18
2022-10-09T12:43:24.570Z,20.16
2022-10-09T12:45:53.732Z,20.22
2022-10-09T12:48:25.868Z,20.30
2022-10-09T12:50:54.239Z,20.31
2022-10-09T12:53:27.844Z,20.40
2022-10-09T12:56:00.917Z,20.44
2022-10-09T12:58:39.396Z,20.54
2022-10-09T13:01:12.367Z,20.48
2022-10-09T13:03:41.929Z,20.50
2022-10-09T13:06:21.881Z,20.44
2022-10-09T13:09:02.556Z,20.45
2022-10-09T13:11:40.625Z,20.49
2022-10-09T13:14:41.401Z,20.50
2022-10-09T13:17:33.417Z,20.54
2022-10-09T13:20:12.391Z,20.63
2022-10-09T13:22:39.872Z,20.56
2022-10-09T13:25:07.623Z,20.64
2022-10-09T13:27:39.473Z,20.57
2022-10-09T13:30:07.641Z,20.50
2022-10-09T13:32:34.582Z,20.57
2022-10-09T13:35:01.529Z,20.64
2022-10-09T13:37:28.536Z,20.63
2022-10-09T13:39:58.886Z,20.61
2022-10-09T13:42:31.364Z,20.71
2022-10-09T13:44:58.407Z,20.68
2022-10-09T13:47:25.438Z,20.70
2022-10-09T13:49:52.488Z,20.57
2022-10-09T13:52:19.474Z,20.52
2022-10-09T13:54:46.471Z,20.54
2022-10-09T13:57:13.556Z,20.58
2022-10-09T13:59:40.489Z,20.59
2022-10-09T14:02:07.989Z,20.56
2022-10-09T14:04:34.927Z,20.57
2022-10-09T14:07:01.977Z,20.59
2022-10-09T14:09:28.975Z,20.62
2022-10-09T14:11:56.040Z,20.64
2022-10-09T14:14:23.066Z,20.55
2022-10-09T14:16:50.888Z,20.51
2022-10-09T14:19:18.143Z,20.49
2022-10-09T14:21:46.891Z,20.50
2022-10-09T14:24:14.912Z,20.45
2022-10-09T14:26:41.868Z,20.42
2022-10-09T14:29:13.009Z,20.49
2022-10-09T14:31:40.564Z,20.48
2022-10-09T14:34:07.600Z,20.47
2022-10-09T14:36:37.179Z,20.41
2022-10-09T14:39:04.588Z,20.41
2022-10-09T14:41:36.818Z,20.36
2022-10-09T14:44:05.017Z,20.44
2022-10-09T14:46:34.037Z,20.52
2022-10-09T14:49:07.284Z,20.46
2022-10-09T14:51:37.864Z,20.47
2022-10-09T14:54:06.776Z,20.42
2022-10-09T14:56:34.490Z,20.29
2022-10-09T14:59:01.983Z,20.27
2022-10-09T15:01:30.040Z,20.18
2022-10-09T15:03:57.304Z,20.18
2022-10-09T15:06:24.328Z,20.17
2022-10-09T15:08:55.510Z,20.25
2022-10-09T15:11:23.321Z,20.27
2022-10-09T15:13:50.352Z,20.18
2022-10-09T15:16:18.837Z,20.19
2022-10-09T15:18:49.517Z,20.15
2022-10-09T15:21:24.196Z,20.06
2022-10-09T15:23:56.952Z,20.01
2022-10-09T15:26:26.461Z,19.96
2022-10-09T15:28:53.874Z,19.98
2022-10-09T15:31:33.895Z,19.92
2022-10-09T15:34:01.602Z,19.90
2022-10-09T15:36:36.120Z,19.87
2022-10-09T15:39:07.260Z,19.86
2022-10-09T15:41:37.950Z,19.82
2022-10-09T15:44:17.951Z,19.78
2022-10-09T15:46:47.062Z,19.69
2022-10-09T15:49:14.317Z,19.67
2022-10-09T15:51:41.583Z,19.61
2022-10-09T15:54:12.008Z,19.60
2022-10-09T15:56:40.377Z,19.56
2022-10-09T15:59:11.047Z,19.48
2022-10-09T16:01:38.218Z,19.37
2022-10-09T16:04:05.271Z,19.36
2022-10-09T16:06:32.232Z,19.24
2022-10-09T16:08:59.810Z,19.18
2022-10-09T16:11:27.188Z,19.12
2022-10-09T16:13:55.608Z,19.03
2022-10-09T16:16:25.673Z,18.98
2022-10-09T16:18:53.379Z,18.91
2022-10-09T16:21:29.038Z,18.83
2022-10-09T16:23:59.303Z,18.78
2022-10-09T16:26:29.353Z,18.69
2022-10-09T16:28:57.016Z,18.62
2022-10-09T16:31:28.301Z,18.54
2022-10-09T16:33:56.543Z,18.44
2022-10-09T16:36:23.766Z,18.38
2022-10-09T16:38:50.806Z,18.30
2022-10-09T16:41:20.677Z,18.20
2022-10-09T16:43:52.408Z,18.11
2022-10-09T16:49:05.751Z,17.94
2022-10-09T16:51:35.869Z,17.85
2022-10-09T16:54:05.625Z,17.77
2022-10-09T16:56:38.519Z,17.70
2022-10-09T16:59:12.249Z,17.62
2022-10-09T17:01:43.738Z,17.58
2022-10-09T17:04:12.825Z,17.54
2022-10-09T17:06:44.601Z,17.50
2022-10-09T17:09:14.245Z,17.43
2022-10-09T17:11:42.427Z,17.39
2022-10-09T17:14:09.510Z,17.31
2022-10-09T17:16:39.064Z,17.26
2022-10-09T17:19:06.549Z,17.21
2022-10-09T17:21:34.912Z,17.18
2022-10-09T17:24:05.129Z,17.10
2022-10-09T17:26:32.508Z,17.03
2022-10-09T17:29:00.931Z,16.95
2022-10-09T17:31:29.540Z,16.88
2022-10-09T17:34:03.024Z,16.78
2022-10-09T17:36:34.649Z,16.71
2022-10-09T17:39:02.284Z,16.64
2022-10-09T17:41:30.115Z,16.57
2022-10-09T17:43:57.653Z,16.50
2022-10-09T17:46:26.804Z,16.44
2022-10-09T17:48:55.974Z,16.38
2022-10-09T17:51:35.825Z,16.34
2022-10-09T17:54:12.656Z,16.27
2022-10-09T17:56:40.286Z,16.24
2022-10-09T17:59:09.044Z,16.16
2022-10-09T18:01:36.966Z,16.15
2022-10-09T18:04:04.235Z,16.06
2022-10-09T18:06:34.855Z,16.02
2022-10-09T18:09:03.333Z,15.96
2022-10-09T18:11:30.639Z,15.88
2022-10-09T18:13:57.825Z,15.85
2022-10-09T18:16:36.236Z,15.77
2022-10-09T18:19:18.276Z,15.68
2022-10-09T18:21:48.314Z,15.67
2022-10-09T18:24:15.527Z,15.61
2022-10-09T18:26:42.948Z,15.55
2022-10-09T18:29:10.036Z,15.53
2022-10-09T18:31:38.584Z,15.49
2022-10-09T18:34:06.007Z,15.44
2022-10-09T18:36:34.577Z,15.37
2022-10-09T18:39:12.106Z,15.32
2022-10-09T18:41:39.531Z,15.23
2022-10-09T18:44:12.518Z,15.24
2022-10-09T18:46:44.943Z,15.18
2022-10-09T18:49:14.208Z,15.12
2022-10-09T18:51:43.435Z,15.09
2022-10-09T18:54:17.083Z,15.03
2022-10-09T18:56:45.017Z,14.96
2022-10-09T18:59:17.725Z,14.92
2022-10-09T19:01:44.916Z,14.90
2022-10-09T19:04:12.208Z,14.89
2022-10-09T19:06:39.366Z,14.82
2022-10-09T19:09:06.651Z,14.82
2022-10-09T19:11:34.968Z,14.79
2022-10-09T19:14:03.238Z,14.73
2022-10-09T19:16:33.627Z,14.75
2022-10-09T19:19:01.288Z,14.68
2022-10-09T19:21:28.548Z,14.64
2022-10-09T19:23:55.799Z,14.61
2022-10-09T19:26:24.906Z,14.57
2022-10-09T19:28:52.178Z,14.50
2022-10-09T19:31:19.411Z,14.46
2022-10-09T19:33:46.696Z,14.43
2022-10-09T19:36:14.888Z,14.36
2022-10-09T19:38:42.349Z,14.28
2022-10-09T19:41:15.566Z,14.28
2022-10-09T19:43:43.040Z,14.22
2022-10-09T19:46:17.119Z,14.18
2022-10-09T19:48:45.834Z,14.15
2022-10-09T19:51:22.676Z,14.12
2022-10-09T19:53:52.102Z,14.07
2022-10-09T19:56:24.465Z,14.03
2022-10-09T19:58:52.230Z,14.02
2022-10-09T20:01:26.199Z,14.01
2022-10-09T20:03:59.564Z,14.00
2022-10-09T20:06:27.590Z,13.93
2022-10-09T20:08:55.393Z,13.92
2022-10-09T20:11:23.325Z,13.87
2022-10-09T20:13:55.495Z,13.86
2022-10-09T20:16:24.586Z,13.80
2022-10-09T20:18:51.713Z,13.75
2022-10-09T20:21:18.995Z,13.74
2022-10-09T20:23:46.046Z,13.70
2022-10-09T20:26:17.928Z,13.66
2022-10-09T20:28:46.605Z,13.61
2022-10-09T20:31:21.038Z,13.57
2022-10-09T20:33:49.638Z,13.54
2022-10-09T20:36:34.947Z,13.49
2022-10-09T20:39:06.554Z,13.44
2022-10-09T20:41:34.854Z,13.45
2022-10-09T20:44:04.012Z,13.38
2022-10-09T20:46:33.724Z,13.38
2022-10-09T20:49:05.068Z,13.33
2022-10-09T20:51:34.499Z,13.25
2022-10-09T20:54:02.361Z,13.26
2022-10-09T20:56:32.230Z,13.20
2022-10-09T20:59:00.340Z,13.15
2022-10-09T21:01:28.791Z,13.19
2022-10-09T21:03:57.492Z,13.16
2022-10-09T21:06:24.963Z,13.08
2022-10-09T21:08:52.141Z,13.12
2022-10-09T21:11:19.902Z,13.11
2022-10-09T21:13:48.535Z,13.09
2022-10-09T21:16:22.716Z,13.06
2022-10-09T21:18:59.066Z,13.03
2022-10-09T21:21:27.212Z,12.98
2022-10-09T21:23:57.334Z,12.99
2022-10-09T21:26:25.224Z,12.99
2022-10-09T21:28:56.905Z,12.95
2022-10-09T21:31:28.926Z,12.92
2022-10-09T21:33:56.660Z,12.88
2022-10-09T21:37:08.803Z,12.85
2022-10-09T21:39:33.950Z,12.86
2022-10-09T21:42:00.934Z,12.87
2022-10-09T21:44:27.897Z,12.80
2022-10-09T21:46:54.894Z,12.78
2022-10-09T21:49:28.050Z,12.72
2022-10-09T21:51:55.568Z,12.76
2022-10-09T21:54:23.045Z,12.71
2022-10-09T21:56:50.269Z,12.68
2022-10-09T21:59:17.512Z,12.67
2022-10-09T22:01:44.740Z,12.65
2022-10-09T22:04:11.740Z,12.65
2022-10-09T22:06:38.807Z,12.61
2022-10-09T22:09:05.793Z,12.57
2022-10-09T22:11:32.767Z,12.54
2022-10-09T22:14:00.116Z,12.60
2022-10-09T22:16:27.189Z,12.54
2022-10-09T22:18:54.304Z,12.52
2022-10-09T22:21:22.923Z,12.55
2022-10-09T22:23:50.485Z,12.52
2022-10-09T22:26:21.715Z,12.51
2022-10-09T22:28:49.774Z,12.46
2022-10-09T22:31:23.431Z,12.46
2022-10-09T22:34:00.034Z,12.43
2022-10-09T22:36:31.628Z,12.42
2022-10-09T22:39:02.591Z,12.44
2022-10-09T22:41:30.903Z,12.34
2022-10-09T22:44:00.220Z,12.34
2022-10-09T22:46:40.887Z,12.32
2022-10-09T22:49:11.196Z,12.28
2022-10-09T22:51:38.266Z,12.29
2022-10-09T22:54:05.903Z,12.29
2022-10-09T22:56:39.770Z,12.24
2022-10-09T22:59:09.450Z,12.18
2022-10-09T23:01:51.404Z,12.22
2022-10-09T23:04:19.674Z,12.17
2022-10-09T23:06:52.342Z,12.14
2022-10-09T23:09:22.506Z,12.10
2022-10-09T23:11:50.056Z,12.07
2022-10-09T23:14:17.441Z,12.02
2022-10-09T23:16:44.850Z,12.01
2022-10-09T23:19:12.746Z,11.99
2022-10-09T23:21:41.863Z,11.98
2022-10-09T23:24:15.255Z,11.95
2022-10-09T23:26:42.223Z,11.94
2022-10-09T23:29:15.460Z,11.91
2022-10-09T23:31:43.199Z,11.91
2022-10-09T23:34:10.953Z,11.88
2022-10-09T23:36:38.417Z,11.86
2022-10-09T23:39:06.961Z,11.82
2022-10-09T23:41:34.572Z,11.82
2022-10-09T23:44:01.673Z,11.83
2022-10-09T23:46:35.562Z,11.80
2022-10-09T23:49:05.083Z,11.77
2022-10-09T23:51:34.115Z,11.73
2022-10-09T23:54:01.147Z,11.75
2022-10-09T23:56:35.136Z,11.68
2022-10-09T23:59:07.972Z,11.70
